createdAt,value
2018-12-22T00:00:44.518Z,2.43
2018-12-22T00:05:46.769Z,2.40
2018-12-22T00:10:48.994Z,2.40
2018-12-22T00:15:51.332Z,2.67
2018-12-22T00:20:53.629Z,3.30
2018-12-22T00:25:55.875Z,2.90
2018-12-22T00:30:58.144Z,2.67
2018-12-22T00:36:00.441Z,3.07
2018-12-22T00:41:02.853Z,3.37
2018-12-22T00:46:05.109Z,3.57
2018-12-22T00:51:07.414Z,3.60
2018-12-22T00:56:09.672Z,2.97
2018-12-22T01:01:12.042Z,2.90
2018-12-22T01:06:15.244Z,2.90
2018-12-22T01:11:17.472Z,2.97
2018-12-22T01:16:19.878Z,2.90
2018-12-22T01:21:23.017Z,2.40
2018-12-22T01:26:25.241Z,2.63
2018-12-22T01:31:28.158Z,3.07
2018-12-22T01:36:30.398Z,2.77
2018-12-22T01:41:32.653Z,2.77
2018-12-22T01:46:34.965Z,2.40
2018-12-22T01:51:37.197Z,2.90
2018-12-22T01:56:39.486Z,2.33
2018-12-22T02:01:41.725Z,3.10
2018-12-22T02:06:43.949Z,2.40
2018-12-22T02:11:47.304Z,2.43
2018-12-22T02:16:49.605Z,2.60
2018-12-22T02:21:53.093Z,2.60
2018-12-22T02:26:55.315Z,2.27
2018-12-22T02:31:58.570Z,2.50
2018-12-22T02:37:00.835Z,3.17
2018-12-22T02:42:03.117Z,2.77
2018-12-22T02:47:05.689Z,2.57
2018-12-22T02:52:08.072Z,2.60
2018-12-22T02:57:10.341Z,2.60
2018-12-22T03:02:12.576Z,3.10
2018-12-22T03:07:15.012Z,2.50
2018-12-22T03:12:17.237Z,2.73
2018-12-22T03:17:19.633Z,2.50
2018-12-22T03:22:21.959Z,2.53
2018-12-22T03:27:24.354Z,2.87
2018-12-22T03:32:26.787Z,2.97
2018-12-22T03:37:29.095Z,2.60
2018-12-22T03:42:31.364Z,2.23
2018-12-22T03:47:33.702Z,2.30
2018-12-22T03:52:35.997Z,2.33
2018-12-22T03:57:38.240Z,2.20
2018-12-22T04:02:40.488Z,2.00
2018-12-22T04:07:42.746Z,2.67
2018-12-22T04:12:45.116Z,2.43
2018-12-22T04:17:47.388Z,2.10
2018-12-22T04:22:49.656Z,2.00
2018-12-22T04:27:51.945Z,2.40
2018-12-22T04:32:54.308Z,1.90
2018-12-22T04:37:56.585Z,2.30
2018-12-22T04:42:58.831Z,2.90
2018-12-22T04:48:01.218Z,2.47
2018-12-22T04:53:03.521Z,2.20
2018-12-22T04:58:05.958Z,2.57
2018-12-22T05:03:08.178Z,2.67
2018-12-22T05:08:10.495Z,2.57
2018-12-22T05:13:13.426Z,2.57
2018-12-22T05:18:15.661Z,2.53
2018-12-22T05:23:17.901Z,2.80
2018-12-22T05:28:20.152Z,3.03
2018-12-22T05:33:22.460Z,3.00
2018-12-22T05:38:24.813Z,3.00
2018-12-22T05:43:27.244Z,3.20
2018-12-22T05:48:29.486Z,3.17
2018-12-22T05:53:31.842Z,2.40
2018-12-22T05:58:34.085Z,2.50
2018-12-22T06:03:36.318Z,3.10
2018-12-22T06:08:38.685Z,2.23
2018-12-22T06:13:41.285Z,2.73
2018-12-22T06:18:43.529Z,2.80
2018-12-22T06:23:45.813Z,3.00
2018-12-22T06:28:48.087Z,2.97
2018-12-22T06:33:50.471Z,2.50
2018-12-22T06:38:52.719Z,2.80
2018-12-22T06:43:55.049Z,2.50
2018-12-22T06:48:57.385Z,2.27
2018-12-22T06:53:59.627Z,2.60
2018-12-22T06:59:03.358Z,2.40
2018-12-22T07:04:09.431Z,2.50
2018-12-22T07:09:11.857Z,1.90
2018-12-22T07:14:14.085Z,2.07
2018-12-22T07:19:16.372Z,2.23
2018-12-22T07:24:18.687Z,2.60
2018-12-22T07:29:20.951Z,2.17
2018-12-22T07:34:23.246Z,2.10
2018-12-22T07:39:25.484Z,2.00
2018-12-22T07:44:27.837Z,1.70
2018-12-22T07:49:30.064Z,1.80
2018-12-22T07:54:33.307Z,1.60
2018-12-22T07:59:35.613Z,2.07
2018-12-22T08:04:37.852Z,1.27
2018-12-22T08:09:40.061Z,1.50
2018-12-22T08:14:42.393Z,1.20
2018-12-22T08:19:44.782Z,1.30
2018-12-22T08:24:47.021Z,1.20
2018-12-22T08:29:49.317Z,1.23
2018-12-22T08:34:59.191Z,1.00
2018-12-22T08:40:01.637Z,0.90
2018-12-22T08:45:05.010Z,1.27
2018-12-22T08:50:09.688Z,1.20
2018-12-22T08:55:12.246Z,1.13
2018-12-22T09:00:14.998Z,1.00
2018-12-22T09:05:17.313Z,0.80
2018-12-22T09:10:19.657Z,1.00
2018-12-22T09:15:23.902Z,1.00
2018-12-22T09:20:26.171Z,1.10
2018-12-22T09:25:29.437Z,1.00
2018-12-22T09:30:31.806Z,1.00
2018-12-22T09:35:34.047Z,1.00
2018-12-22T09:40:36.320Z,1.00
2018-12-22T09:45:38.565Z,0.97
2018-12-22T09:50:40.789Z,1.07
2018-12-22T09:55:43.195Z,1.00
2018-12-22T10:00:45.587Z,1.00
2018-12-22T10:05:50.699Z,0.93
2018-12-22T10:10:52.941Z,1.53
2018-12-22T10:15:55.244Z,1.20
2018-12-22T10:20:57.511Z,1.10
2018-12-22T10:25:59.883Z,1.00
2018-12-22T10:31:03.641Z,1.00
2018-12-22T10:36:06.359Z,0.73
2018-12-22T10:41:08.695Z,1.30
2018-12-22T10:46:12.128Z,0.90
2018-12-22T10:51:14.358Z,0.90
2018-12-22T10:56:16.614Z,0.87
2018-12-22T11:01:26.199Z,0.90
2018-12-22T11:06:23.206Z,1.10
2018-12-22T11:11:25.695Z,0.80
2018-12-22T11:16:27.937Z,1.20
2018-12-22T11:21:30.185Z,0.93
2018-12-22T11:26:33.020Z,1.00
2018-12-22T11:31:35.498Z,0.97
2018-12-22T11:36:37.781Z,0.80
2018-12-22T11:41:40.091Z,0.90
2018-12-22T11:46:42.582Z,0.73
2018-12-22T11:51:45.169Z,0.77
2018-12-22T11:56:47.397Z,0.80
2018-12-22T12:01:49.847Z,0.90
2018-12-22T12:06:52.263Z,0.80
2018-12-22T12:11:54.512Z,0.90
2018-12-22T12:18:08.818Z,1.10
2018-12-22T12:23:11.057Z,1.00
2018-12-22T12:28:13.469Z,1.00
2018-12-22T12:33:15.788Z,0.90
2018-12-22T12:38:18.049Z,0.90
2018-12-22T12:43:20.534Z,1.70
2018-12-22T12:48:24.181Z,0.90
2018-12-22T12:53:26.433Z,1.00
2018-12-22T12:58:28.681Z,1.03
2018-12-22T13:03:30.973Z,1.20
2018-12-22T13:08:33.208Z,1.00
2018-12-22T13:13:42.158Z,1.00
2018-12-22T13:18:44.410Z,0.90
2018-12-22T13:23:46.703Z,1.00
2018-12-22T13:28:48.984Z,0.80
2018-12-22T13:33:51.317Z,0.60
2018-12-22T13:39:04.707Z,0.70
2018-12-22T13:44:06.946Z,0.80
2018-12-22T13:49:09.337Z,0.80
2018-12-22T13:54:12.696Z,0.70
2018-12-22T13:59:14.921Z,0.70
2018-12-22T14:04:17.193Z,0.70
2018-12-22T14:09:19.521Z,0.90
2018-12-22T14:14:25.607Z,0.83
2018-12-22T14:19:27.956Z,1.07
2018-12-22T14:24:39.771Z,1.50
2018-12-22T14:29:42.391Z,1.60
2018-12-22T14:34:49.139Z,1.90
2018-12-22T14:39:51.489Z,1.60
2018-12-22T14:44:53.725Z,2.20
2018-12-22T14:49:55.972Z,2.57
2018-12-22T15:00:27.602Z,2.20
2018-12-22T15:05:29.942Z,2.43
2018-12-22T15:10:33.860Z,2.50
2018-12-22T15:15:36.413Z,2.43
2018-12-22T15:20:38.737Z,1.80
2018-12-22T15:25:40.967Z,1.93
2018-12-22T15:30:43.258Z,2.50
2018-12-22T15:35:45.629Z,2.37
2018-12-22T15:40:47.924Z,2.50
2018-12-22T15:45:50.225Z,2.57
2018-12-22T15:50:52.486Z,2.40
2018-12-22T15:55:54.972Z,2.50
2018-12-22T16:00:57.431Z,2.70
2018-12-22T16:05:59.921Z,2.60
2018-12-22T16:11:02.421Z,2.63
2018-12-22T16:16:05.102Z,2.40
2018-12-22T16:21:07.537Z,2.80
2018-12-22T16:26:09.952Z,3.00
2018-12-22T16:31:12.427Z,2.90
2018-12-22T16:36:15.267Z,2.90
2018-12-22T16:41:17.553Z,2.80
2018-12-22T16:46:20.009Z,2.83
2018-12-22T16:51:22.366Z,3.67
2018-12-22T16:56:24.645Z,4.50
2018-12-22T17:01:40.028Z,4.83
2018-12-22T17:06:42.324Z,4.43
2018-12-22T17:11:44.597Z,3.40
2018-12-22T17:16:47.304Z,4.03
2018-12-22T17:21:55.377Z,3.50
2018-12-22T17:26:58.665Z,4.90
2018-12-22T17:32:01.146Z,4.03
2018-12-22T17:37:03.656Z,4.60
2018-12-22T17:42:06.466Z,3.73
2018-12-22T17:47:08.746Z,3.70
2018-12-22T17:52:11.021Z,3.10
2018-12-22T17:57:13.775Z,2.43
2018-12-22T18:02:16.144Z,2.10
2018-12-22T18:07:18.502Z,2.30
2018-12-22T18:12:20.778Z,2.20
2018-12-22T18:17:23.064Z,2.20
2018-12-22T18:22:25.376Z,2.40
2018-12-22T18:27:27.718Z,2.07
2018-12-22T18:32:29.973Z,2.70
2018-12-22T18:37:32.322Z,2.20
2018-12-22T18:42:34.594Z,2.40
2018-12-22T18:47:37.069Z,2.40
2018-12-22T18:52:39.299Z,2.70
2018-12-22T18:57:41.575Z,2.60
2018-12-22T19:02:43.945Z,3.00
2018-12-22T19:07:46.208Z,3.33
2018-12-22T19:12:48.811Z,2.70
2018-12-22T19:17:55.128Z,2.47
2018-12-22T19:22:58.021Z,2.60
2018-12-22T19:28:00.350Z,3.00
2018-12-22T19:33:02.582Z,2.93
2018-12-22T19:38:05.029Z,2.87
2018-12-22T19:43:07.430Z,3.00
2018-12-22T19:48:09.641Z,2.53
2018-12-22T19:53:12.056Z,2.60
2018-12-22T19:58:14.271Z,2.40
2018-12-22T20:03:16.498Z,2.50
2018-12-22T20:08:18.794Z,2.50
2018-12-22T20:13:21.314Z,2.50
2018-12-22T20:18:23.682Z,2.30
2018-12-22T20:23:25.948Z,2.20
2018-12-22T20:28:28.243Z,2.10
2018-12-22T20:33:30.586Z,2.67
2018-12-22T20:38:32.849Z,2.73
2018-12-22T20:43:35.207Z,2.80
2018-12-22T20:48:37.414Z,2.60
2018-12-22T20:53:39.621Z,2.90
2018-12-22T20:58:41.830Z,2.80
2018-12-22T21:03:44.291Z,2.40
2018-12-22T21:08:46.724Z,2.90
2018-12-22T21:13:48.939Z,3.20
2018-12-22T21:18:51.205Z,3.53
2018-12-22T21:23:53.432Z,3.40
2018-12-22T21:28:55.828Z,3.67
2018-12-22T21:33:58.060Z,3.60
2018-12-22T21:39:00.575Z,3.67
2018-12-22T21:44:02.917Z,3.00
2018-12-22T21:49:05.454Z,3.50
2018-12-22T21:54:07.835Z,3.50
2018-12-22T21:59:10.877Z,3.63
2018-12-22T22:04:13.550Z,3.60
2018-12-22T22:09:19.257Z,3.30
2018-12-22T22:14:23.051Z,4.00
2018-12-22T22:19:26.402Z,3.40
2018-12-22T22:24:28.722Z,3.40
2018-12-22T22:29:32.170Z,2.90
2018-12-22T22:34:34.534Z,3.20
2018-12-22T22:39:36.967Z,2.90
2018-12-22T22:44:39.671Z,3.03
2018-12-22T22:49:41.969Z,2.30
2018-12-22T22:54:44.260Z,2.83
2018-12-22T22:59:46.579Z,3.13
2018-12-22T23:04:54.340Z,2.70
2018-12-22T23:09:53.173Z,3.00
2018-12-22T23:14:55.463Z,2.93
2018-12-22T23:19:57.756Z,3.20
2018-12-22T23:24:59.968Z,3.27
2018-12-22T23:30:02.686Z,2.77
2018-12-22T23:35:06.261Z,3.13
2018-12-22T23:40:08.716Z,2.90
2018-12-22T23:45:10.962Z,2.40
2018-12-22T23:50:13.194Z,2.37
2018-12-22T23:55:15.701Z,2.50
